createdAt,value
2023-02-14T00:00:28.227Z,29.55
2023-02-14T00:02:56.324Z,24.13
2023-02-14T00:05:23.147Z,24.95
2023-02-14T00:07:49.832Z,28.90
2023-02-14T00:10:17.251Z,27.92
2023-02-14T00:12:43.915Z,26.85
2023-02-14T00:15:23.552Z,26.65
2023-02-14T00:17:51.644Z,28.65
2023-02-14T00:20:18.849Z,24.15
2023-02-14T00:22:45.508Z,27.42
2023-02-14T00:25:12.348Z,24.00
2023-02-14T00:27:39.181Z,26.58
2023-02-14T00:30:08.050Z,33.40
2023-02-14T00:32:38.480Z,25.52
2023-02-14T00:35:06.252Z,28.63
2023-02-14T00:37:33.708Z,25.65
2023-02-14T00:40:00.540Z,24.95
2023-02-14T00:42:27.223Z,25.60
2023-02-14T00:44:54.058Z,24.50
2023-02-14T00:47:20.778Z,24.25
2023-02-14T00:49:47.612Z,23.27
2023-02-14T00:52:14.399Z,23.80
2023-02-14T00:54:41.059Z,23.67
2023-02-14T00:57:07.739Z,23.52
2023-02-14T00:59:36.503Z,25.90
2023-02-14T01:02:04.182Z,25.67
2023-02-14T01:04:31.033Z,23.90
2023-02-14T01:06:57.730Z,23.70
2023-02-14T01:09:24.472Z,24.60
2023-02-14T01:11:51.188Z,24.80
2023-02-14T01:14:17.866Z,28.80
2023-02-14T01:16:44.571Z,29.67
2023-02-14T01:19:11.321Z,29.45
2023-02-14T01:21:38.119Z,27.45
2023-02-14T01:24:07.299Z,27.77
2023-02-14T01:26:35.112Z,23.45
2023-02-14T01:29:02.991Z,20.98
2023-02-14T01:31:32.126Z,25.67
2023-02-14T01:33:59.629Z,22.70
2023-02-14T01:36:35.191Z,25.60
2023-02-14T01:39:07.819Z,21.73
2023-02-14T01:41:36.483Z,21.77
2023-02-14T01:44:04.774Z,23.90
2023-02-14T01:46:34.163Z,24.90
2023-02-14T01:49:22.074Z,25.35
2023-02-14T01:52:17.004Z,22.50
2023-02-14T01:54:52.047Z,25.92
2023-02-14T01:57:22.757Z,26.67
2023-02-14T01:59:56.394Z,26.33
2023-02-14T02:02:23.955Z,22.73
2023-02-14T02:04:55.688Z,25.15
2023-02-14T02:07:27.540Z,24.73
2023-02-14T02:10:01.176Z,22.33
2023-02-14T02:12:30.535Z,21.85
2023-02-14T02:14:59.897Z,21.23
2023-02-14T02:17:35.399Z,22.13
2023-02-14T02:20:23.336Z,25.67
2023-02-14T02:23:15.787Z,23.30
2023-02-14T02:25:46.231Z,25.13
2023-02-14T02:32:58.603Z,21.85
2023-02-14T02:35:49.412Z,20.27
2023-02-14T02:41:22.958Z,29.38
2023-02-14T02:43:55.140Z,22.90
2023-02-14T02:46:49.773Z,22.60
2023-02-14T02:49:51.468Z,22.02
2023-02-14T02:52:45.960Z,20.02
2023-02-14T02:55:20.637Z,21.90
2023-02-14T02:57:49.100Z,21.30
2023-02-14T03:00:17.686Z,24.73
2023-02-14T03:03:08.349Z,23.13
2023-02-14T03:05:36.593Z,25.10
2023-02-14T03:08:04.950Z,28.17
2023-02-14T03:10:35.812Z,23.85
2023-02-14T03:13:15.963Z,32.38
2023-02-14T03:16:00.880Z,26.70
2023-02-14T03:19:00.227Z,28.50
2023-02-14T03:21:55.109Z,26.48
2023-02-14T03:24:49.159Z,26.75
2023-02-14T03:27:25.474Z,26.67
2023-02-14T03:30:14.431Z,25.02
2023-02-14T03:32:47.123Z,27.40
2023-02-14T03:35:30.436Z,30.38
2023-02-14T03:38:09.377Z,25.75
2023-02-14T03:40:49.344Z,25.40
2023-02-14T03:43:22.100Z,32.20
2023-02-14T03:46:11.762Z,23.05
2023-02-14T03:48:40.516Z,29.58
2023-02-14T03:51:10.673Z,24.70
2023-02-14T03:53:41.476Z,25.67
2023-02-14T03:56:17.364Z,26.45
2023-02-14T03:58:49.567Z,30.38
2023-02-14T04:01:28.036Z,26.08
2023-02-14T04:03:57.289Z,30.13
2023-02-14T04:06:24.211Z,34.55
2023-02-14T04:08:51.035Z,29.27
2023-02-14T04:11:17.791Z,32.50
2023-02-14T04:13:44.515Z,27.70
2023-02-14T04:16:11.280Z,26.75
2023-02-14T04:18:56.904Z,27.48
2023-02-14T04:21:23.617Z,26.23
2023-02-14T04:23:50.270Z,31.45
2023-02-14T04:26:16.917Z,32.75
2023-02-14T04:28:43.555Z,27.75
2023-02-14T04:31:11.317Z,29.00
2023-02-14T04:33:39.263Z,26.80
2023-02-14T04:36:06.311Z,28.77
2023-02-14T04:38:33.467Z,30.55
2023-02-14T04:41:00.431Z,25.23
2023-02-14T04:43:27.484Z,27.55
2023-02-14T04:45:54.189Z,28.30
2023-02-14T04:48:20.848Z,28.38
2023-02-14T04:50:52.747Z,26.58
2023-02-14T04:53:19.783Z,29.75
2023-02-14T04:55:48.454Z,32.45
2023-02-14T04:58:15.130Z,28.90
2023-02-14T05:00:41.853Z,29.05
2023-02-14T05:03:08.513Z,28.75
2023-02-14T05:05:35.161Z,29.30
2023-02-14T05:08:01.904Z,28.75
2023-02-14T05:10:29.122Z,35.28
2023-02-14T05:12:55.844Z,31.60
2023-02-14T05:15:22.574Z,26.05
2023-02-14T05:17:49.190Z,32.08
2023-02-14T05:20:15.860Z,30.85
2023-02-14T05:22:42.506Z,31.25
2023-02-14T05:25:09.239Z,33.10
2023-02-14T05:27:35.918Z,30.48
2023-02-14T05:30:02.709Z,29.02
2023-02-14T05:32:29.497Z,29.67
2023-02-14T05:34:56.123Z,31.20
2023-02-14T05:37:22.761Z,34.42
2023-02-14T05:39:49.445Z,30.67
2023-02-14T05:42:16.166Z,32.50
2023-02-14T05:44:42.898Z,30.63
2023-02-14T05:47:11.576Z,33.00
2023-02-14T05:49:39.521Z,36.03
2023-02-14T05:52:06.389Z,29.40
2023-02-14T05:54:33.030Z,31.65
2023-02-14T05:56:59.752Z,30.92
2023-02-14T05:59:26.487Z,30.52
2023-02-14T06:01:53.183Z,33.80
2023-02-14T06:04:19.944Z,31.40
2023-02-14T06:06:46.621Z,26.63
2023-02-14T06:09:13.651Z,30.23
2023-02-14T06:11:40.567Z,27.50
2023-02-14T06:14:07.284Z,32.80
2023-02-14T06:16:34.088Z,33.97
2023-02-14T06:19:00.778Z,34.22
2023-02-14T06:21:27.441Z,28.55
2023-02-14T06:23:54.151Z,30.98
2023-02-14T06:26:20.870Z,31.98
2023-02-14T06:28:47.550Z,28.88
2023-02-14T06:31:18.087Z,30.13
2023-02-14T06:33:44.841Z,33.33
2023-02-14T06:36:12.050Z,31.42
2023-02-14T06:38:38.763Z,30.35
2023-02-14T06:41:09.945Z,33.10
2023-02-14T06:43:37.768Z,28.90
2023-02-14T06:46:04.597Z,33.40
2023-02-14T06:48:31.266Z,37.15
2023-02-14T06:50:58.493Z,32.58
2023-02-14T06:53:25.349Z,34.05
2023-02-14T06:55:52.012Z,35.05
2023-02-14T06:58:18.787Z,36.00
2023-02-14T07:00:46.357Z,33.80
2023-02-14T07:03:13.306Z,35.05
2023-02-14T07:05:40.292Z,32.13
2023-02-14T07:08:08.028Z,35.88
2023-02-14T07:10:35.004Z,38.40
2023-02-14T07:13:02.131Z,38.53
2023-02-14T07:15:28.958Z,35.55
2023-02-14T07:17:55.736Z,34.75
2023-02-14T07:20:22.415Z,36.35
2023-02-14T07:22:49.127Z,36.78
2023-02-14T07:25:15.855Z,35.05
2023-02-14T07:27:44.183Z,37.63
2023-02-14T07:30:12.164Z,37.78
2023-02-14T07:32:39.468Z,33.40
2023-02-14T07:35:07.334Z,35.58
2023-02-14T07:37:34.991Z,33.63
2023-02-14T07:40:03.774Z,38.22
2023-02-14T07:42:30.490Z,38.17
2023-02-14T07:44:57.207Z,56.20
2023-02-14T07:47:24.963Z,58.17
2023-02-14T07:49:51.709Z,49.70
2023-02-14T07:52:18.408Z,42.80
2023-02-14T07:54:45.153Z,48.45
2023-02-14T07:57:11.820Z,43.80
2023-02-14T07:59:38.516Z,45.63
2023-02-14T08:02:05.431Z,52.13
2023-02-14T08:04:33.808Z,50.88
2023-02-14T08:07:00.882Z,61.10
2023-02-14T08:09:27.748Z,57.35
2023-02-14T08:12:14.758Z,59.28
2023-02-14T08:14:42.244Z,52.13
2023-02-14T08:17:10.080Z,61.47
2023-02-14T08:19:37.337Z,54.67
2023-02-14T08:22:05.191Z,54.63
2023-02-14T08:24:32.136Z,56.28
2023-02-14T08:26:58.969Z,59.22
2023-02-14T08:29:25.836Z,57.92
2023-02-14T08:31:53.487Z,53.70
2023-02-14T08:34:20.237Z,50.55
2023-02-14T08:36:47.414Z,50.95
2023-02-14T08:39:14.822Z,46.28
2023-02-14T08:41:41.456Z,50.67
2023-02-14T08:44:08.110Z,50.83
2023-02-14T08:46:34.966Z,44.78
2023-02-14T08:49:01.665Z,37.53
2023-02-14T08:51:28.383Z,42.17
2023-02-14T08:53:55.832Z,38.97
2023-02-14T08:56:22.680Z,40.97
2023-02-14T08:58:53.044Z,38.78
2023-02-14T09:01:20.104Z,41.28
2023-02-14T09:03:47.174Z,46.20
2023-02-14T09:06:17.148Z,41.35
2023-02-14T09:08:45.469Z,43.80
2023-02-14T09:11:22.017Z,34.35
2023-02-14T09:13:53.020Z,39.42
2023-02-14T09:16:24.221Z,43.10
2023-02-14T09:18:52.705Z,38.20
2023-02-14T09:21:25.329Z,42.33
2023-02-14T09:23:52.463Z,40.95
2023-02-14T09:26:19.255Z,40.83
2023-02-14T09:28:46.252Z,42.10
2023-02-14T09:31:17.719Z,33.90
2023-02-14T09:33:46.562Z,36.28
2023-02-14T09:36:13.389Z,38.40
2023-02-14T09:38:40.284Z,35.53
2023-02-14T09:41:08.815Z,41.60
2023-02-14T09:43:51.595Z,39.97
2023-02-14T09:46:20.444Z,38.83
2023-02-14T09:48:49.869Z,38.42
2023-02-14T09:51:25.751Z,36.05
2023-02-14T09:54:13.422Z,36.72
2023-02-14T09:56:58.432Z,38.00
2023-02-14T09:59:40.390Z,31.35
2023-02-14T10:02:44.787Z,32.25
2023-02-14T10:05:28.765Z,34.72
2023-02-14T10:08:02.573Z,37.70
2023-02-14T10:10:33.703Z,39.83
2023-02-14T10:13:13.771Z,33.00
2023-02-14T10:15:44.901Z,35.33
2023-02-14T10:18:20.276Z,31.40
2023-02-14T10:20:56.196Z,30.67
2023-02-14T10:23:44.978Z,32.58
2023-02-14T10:26:29.938Z,38.40
2023-02-14T10:28:56.844Z,33.65
2023-02-14T10:31:37.733Z,31.77
2023-02-14T10:34:21.143Z,30.00
2023-02-14T10:37:02.294Z,31.50
2023-02-14T10:39:38.644Z,33.58
2023-02-14T10:42:43.073Z,32.53
2023-02-14T10:45:39.204Z,31.92
2023-02-14T10:48:08.609Z,29.35
2023-02-14T10:51:13.373Z,32.90
2023-02-14T10:54:17.288Z,29.92
2023-02-14T10:56:50.263Z,31.73
2023-02-14T10:59:28.658Z,28.35
2023-02-14T11:01:56.852Z,27.55
2023-02-14T11:04:25.213Z,31.85
2023-02-14T11:06:53.617Z,24.50
2023-02-14T11:09:20.879Z,28.52
2023-02-14T11:11:53.388Z,25.70
2023-02-14T11:14:35.667Z,26.33
2023-02-14T11:17:30.361Z,27.80
2023-02-14T11:20:06.238Z,28.33
2023-02-14T11:22:34.829Z,29.50
2023-02-14T11:25:06.856Z,26.75
2023-02-14T11:27:33.893Z,25.67
2023-02-14T11:30:02.053Z,27.63
2023-02-14T11:32:31.695Z,28.77
2023-02-14T11:35:04.291Z,29.40
2023-02-14T11:37:36.997Z,30.23
2023-02-14T11:40:05.176Z,34.75
2023-02-14T11:42:44.009Z,29.50
2023-02-14T11:45:33.316Z,29.25
2023-02-14T11:48:36.765Z,29.27
2023-02-14T11:51:13.829Z,34.00
2023-02-14T11:53:51.179Z,28.88
2023-02-14T11:56:20.164Z,28.13
2023-02-14T11:58:59.680Z,30.73
2023-02-14T12:01:30.425Z,28.58
2023-02-14T12:04:00.705Z,27.73
2023-02-14T12:06:32.958Z,31.10
2023-02-14T12:09:24.953Z,25.67
2023-02-14T12:14:29.674Z,22.48
2023-02-14T12:17:11.641Z,27.63
2023-02-14T12:19:46.052Z,28.85
2023-02-14T12:22:20.917Z,26.75
2023-02-14T12:25:17.564Z,23.50
2023-02-14T12:27:50.488Z,29.08
2023-02-14T12:30:20.759Z,28.08
2023-02-14T12:32:53.204Z,31.98
2023-02-14T12:35:29.839Z,27.20
2023-02-14T12:38:38.870Z,29.05
2023-02-14T12:41:36.444Z,24.20
2023-02-14T12:44:16.206Z,23.08
2023-02-14T12:46:58.774Z,24.70
2023-02-14T12:49:49.315Z,23.65
2023-02-14T12:52:55.927Z,26.50
2023-02-14T12:55:32.418Z,24.48
2023-02-14T12:58:28.007Z,25.85
2023-02-14T13:00:57.849Z,24.17
2023-02-14T13:03:45.988Z,24.58
2023-02-14T13:06:28.423Z,25.95
2023-02-14T13:09:11.442Z,23.67
2023-02-14T13:12:04.644Z,26.63
2023-02-14T13:14:52.576Z,23.77
2023-02-14T13:17:42.126Z,22.60
2023-02-14T13:20:28.530Z,25.35
2023-02-14T13:22:57.324Z,23.27
2023-02-14T13:25:31.634Z,22.10
2023-02-14T13:28:01.540Z,26.13
2023-02-14T13:30:37.067Z,25.77
2023-02-14T13:33:14.538Z,21.27
2023-02-14T13:35:41.775Z,25.58
2023-02-14T13:38:15.449Z,24.38
2023-02-14T13:40:42.727Z,24.33
2023-02-14T13:43:09.377Z,23.02
2023-02-14T13:45:37.139Z,19.75
2023-02-14T13:48:23.210Z,23.50
2023-02-14T13:51:04.682Z,28.42
2023-02-14T13:53:36.914Z,24.35
2023-02-14T13:56:06.688Z,33.08
2023-02-14T13:58:34.892Z,27.55
2023-02-14T14:01:39.125Z,28.02
2023-02-14T14:04:31.743Z,27.38
2023-02-14T14:07:04.096Z,26.73
2023-02-14T14:09:43.187Z,27.98
2023-02-14T14:12:28.472Z,32.28
2023-02-14T14:15:07.981Z,39.63
2023-02-14T14:17:41.538Z,32.78
2023-02-14T14:20:20.153Z,33.13
2023-02-14T14:22:49.387Z,32.13
2023-02-14T14:25:31.419Z,36.78
2023-02-14T14:27:59.110Z,32.05
2023-02-14T14:30:31.009Z,30.88
2023-02-14T14:33:16.003Z,33.58
2023-02-14T14:35:57.225Z,31.27
2023-02-14T14:38:25.144Z,29.02
2023-02-14T14:40:52.867Z,30.13
2023-02-14T14:43:33.028Z,29.38
2023-02-14T14:46:02.264Z,30.63
2023-02-14T14:48:33.054Z,28.83
2023-02-14T14:51:00.492Z,28.60
2023-02-14T14:53:32.468Z,30.67
2023-02-14T14:55:59.699Z,30.95
2023-02-14T14:58:39.620Z,28.25
2023-02-14T15:01:10.812Z,33.97
2023-02-14T15:03:37.568Z,29.30
2023-02-14T15:06:29.834Z,27.17
2023-02-14T15:08:56.646Z,32.78
2023-02-14T15:11:47.429Z,28.85
2023-02-14T15:14:21.787Z,31.58
2023-02-14T15:16:51.890Z,34.80
2023-02-14T15:19:21.172Z,32.53
2023-02-14T15:21:48.137Z,31.35
2023-02-14T15:24:17.504Z,32.25
2023-02-14T15:26:47.643Z,33.75
2023-02-14T15:29:23.989Z,30.58
2023-02-14T15:31:51.550Z,34.25
2023-02-14T15:34:28.212Z,36.22
2023-02-14T15:37:03.312Z,34.50
2023-02-14T15:39:41.417Z,34.47
2023-02-14T15:42:25.876Z,30.83
2023-02-14T15:45:29.817Z,35.85
2023-02-14T15:48:03.999Z,35.13
2023-02-14T15:50:33.401Z,30.75
2023-02-14T15:53:05.598Z,30.90
2023-02-14T15:55:33.465Z,32.72
2023-02-14T15:58:03.765Z,31.25
2023-02-14T16:00:31.680Z,32.00
2023-02-14T16:03:06.483Z,32.08
2023-02-14T16:05:33.769Z,33.45
2023-02-14T16:08:24.877Z,31.98
2023-02-14T16:11:01.001Z,30.17
2023-02-14T16:13:36.315Z,35.42
2023-02-14T16:16:08.527Z,37.00
2023-02-14T16:18:42.902Z,37.08
2023-02-14T16:21:31.111Z,30.90
2023-02-14T16:24:10.668Z,36.03
2023-02-14T16:26:40.395Z,30.20
2023-02-14T16:29:19.387Z,31.00
2023-02-14T16:32:14.095Z,34.97
2023-02-14T16:34:36.424Z,39.35
2023-02-14T16:37:08.962Z,35.22
2023-02-14T16:39:35.982Z,33.30
2023-02-14T16:42:03.830Z,38.15
2023-02-14T16:44:30.576Z,33.58
2023-02-14T16:46:57.200Z,32.97
2023-02-14T16:49:23.891Z,36.15
2023-02-14T16:51:52.179Z,35.10
2023-02-14T16:54:21.071Z,37.05
2023-02-14T16:56:47.705Z,36.05
2023-02-14T16:59:14.374Z,39.50
2023-02-14T17:01:41.053Z,39.63
2023-02-14T17:04:07.748Z,39.53
2023-02-14T17:06:38.274Z,43.65
2023-02-14T17:09:09.020Z,48.00
2023-02-14T17:11:38.884Z,40.97
2023-02-14T17:14:06.294Z,38.10
2023-02-14T17:16:33.713Z,40.58
2023-02-14T17:19:02.751Z,45.65
2023-02-14T17:21:29.949Z,42.72
2023-02-14T17:23:57.118Z,38.63
2023-02-14T17:26:24.054Z,38.60
2023-02-14T17:28:50.712Z,44.40
2023-02-14T17:31:17.995Z,74.90
2023-02-14T17:33:44.733Z,49.22
2023-02-14T17:36:13.598Z,55.47
2023-02-14T17:38:43.349Z,52.15
2023-02-14T17:41:25.008Z,42.92
2023-02-14T17:43:54.859Z,44.78
2023-02-14T17:46:22.054Z,42.05
2023-02-14T17:48:49.552Z,42.97
2023-02-14T17:51:20.333Z,40.65
2023-02-14T17:53:48.226Z,38.33
2023-02-14T17:56:22.951Z,38.55
2023-02-14T17:58:51.377Z,38.92
2023-02-14T18:01:26.960Z,43.10
2023-02-14T18:03:54.913Z,40.05
2023-02-14T18:06:21.968Z,42.25
2023-02-14T18:08:50.415Z,41.28
2023-02-14T18:11:19.500Z,43.78
2023-02-14T18:13:46.448Z,46.08
2023-02-14T18:16:15.858Z,41.88
2023-02-14T18:18:42.618Z,50.65
2023-02-14T18:21:11.461Z,45.38
2023-02-14T18:23:38.738Z,51.75
2023-02-14T18:26:09.762Z,48.40
2023-02-14T18:28:36.480Z,41.83
2023-02-14T18:31:08.662Z,41.85
2023-02-14T18:33:36.643Z,46.63
2023-02-14T18:36:07.122Z,54.88
2023-02-14T18:38:34.836Z,48.13
2023-02-14T18:41:06.280Z,45.53
2023-02-14T18:43:33.155Z,45.25
2023-02-14T18:46:17.570Z,43.47
2023-02-14T18:48:44.847Z,47.30
2023-02-14T18:51:14.268Z,46.88
2023-02-14T18:53:41.790Z,48.20
2023-02-14T18:56:14.422Z,46.80
2023-02-14T18:58:43.381Z,48.30
2023-02-14T19:01:11.032Z,50.83
2023-02-14T19:03:39.116Z,45.35
2023-02-14T19:06:06.658Z,48.85
2023-02-14T19:08:34.765Z,43.03
2023-02-14T19:11:02.301Z,51.13
2023-02-14T19:13:31.992Z,49.80
2023-02-14T19:15:59.503Z,49.50
2023-02-14T19:18:26.975Z,51.45
2023-02-14T19:20:53.674Z,54.80
2023-02-14T19:23:20.314Z,54.55
2023-02-14T19:25:46.950Z,56.97
2023-02-14T19:28:13.665Z,55.10
2023-02-14T19:30:40.435Z,51.92
2023-02-14T19:33:07.137Z,52.60
2023-02-14T19:35:33.805Z,55.97
2023-02-14T19:38:03.306Z,56.08
2023-02-14T19:40:30.740Z,52.58
2023-02-14T19:42:57.652Z,60.08
2023-02-14T19:45:24.413Z,55.30
2023-02-14T19:47:51.039Z,49.47
2023-02-14T19:50:20.283Z,54.03
2023-02-14T19:52:47.179Z,54.60
2023-02-14T19:55:22.663Z,57.80
2023-02-14T19:57:49.409Z,60.13
2023-02-14T20:00:16.904Z,60.67
2023-02-14T20:02:47.894Z,53.08
2023-02-14T20:05:16.456Z,56.75
2023-02-14T20:07:43.726Z,55.13
2023-02-14T20:10:11.674Z,54.58
2023-02-14T20:12:38.845Z,50.78
2023-02-14T20:15:06.520Z,53.40
2023-02-14T20:17:33.385Z,54.08
2023-02-14T20:20:00.397Z,53.22
2023-02-14T20:22:27.849Z,48.47
2023-02-14T20:24:54.528Z,49.60
2023-02-14T20:27:24.470Z,48.72
2023-02-14T20:29:51.754Z,55.42
2023-02-14T20:32:18.541Z,53.28
2023-02-14T20:34:45.650Z,54.67
2023-02-14T20:37:12.434Z,55.90
2023-02-14T20:39:39.199Z,55.00
2023-02-14T20:42:06.021Z,55.38
2023-02-14T20:44:33.690Z,55.65
2023-02-14T20:47:00.405Z,54.03
2023-02-14T20:49:28.402Z,57.83
2023-02-14T20:51:55.899Z,54.75
2023-02-14T20:54:24.747Z,57.08
2023-02-14T20:56:52.648Z,54.30
2023-02-14T20:59:26.161Z,52.42
2023-02-14T21:01:54.647Z,50.05
2023-02-14T21:04:21.703Z,53.55
2023-02-14T21:06:49.048Z,55.72
2023-02-14T21:09:16.485Z,55.13
2023-02-14T21:11:43.107Z,52.60
2023-02-14T21:14:10.422Z,50.08
2023-02-14T21:16:37.062Z,49.92
2023-02-14T21:19:04.644Z,47.55
2023-02-14T21:21:36.560Z,49.78
2023-02-14T21:24:11.840Z,48.90
2023-02-14T21:26:39.455Z,49.15
2023-02-14T21:29:07.300Z,49.83
2023-02-14T21:31:34.734Z,51.05
2023-02-14T21:34:02.735Z,45.33
2023-02-14T21:36:31.912Z,47.70
2023-02-14T21:38:59.915Z,44.70
2023-02-14T21:41:31.154Z,44.70
2023-02-14T21:43:59.478Z,45.67
2023-02-14T21:46:30.642Z,45.28
2023-02-14T21:49:18.458Z,45.38
2023-02-14T21:51:46.228Z,41.17
2023-02-14T21:54:13.429Z,37.08
2023-02-14T21:56:43.880Z,42.97
2023-02-14T21:59:11.292Z,41.20
2023-02-14T22:01:41.023Z,43.90
2023-02-14T22:04:11.012Z,43.03
2023-02-14T22:06:39.259Z,40.35
2023-02-14T22:09:06.745Z,40.30
2023-02-14T22:11:34.255Z,41.45
2023-02-14T22:14:01.135Z,39.22
2023-02-14T22:16:28.138Z,38.55
2023-02-14T22:18:55.026Z,41.17
2023-02-14T22:21:26.412Z,38.45
2023-02-14T22:23:55.099Z,46.78
2023-02-14T22:26:27.445Z,38.53
2023-02-14T22:28:59.129Z,38.78
2023-02-14T22:33:53.897Z,35.30
2023-02-14T22:36:20.641Z,39.80
2023-02-14T22:38:47.426Z,44.30
2023-02-14T22:41:16.789Z,36.95
2023-02-14T22:43:44.073Z,38.80
2023-02-14T22:46:13.914Z,41.80
2023-02-14T22:48:41.031Z,40.75
2023-02-14T22:51:23.616Z,42.85
2023-02-14T22:53:51.994Z,41.97
2023-02-14T22:56:22.153Z,45.03
2023-02-14T22:58:48.855Z,43.70
2023-02-14T23:01:18.454Z,46.20
2023-02-14T23:03:45.744Z,49.00
2023-02-14T23:06:12.761Z,41.38
2023-02-14T23:08:43.959Z,48.17
2023-02-14T23:11:14.109Z,45.95
2023-02-14T23:13:59.426Z,48.30
2023-02-14T23:16:45.069Z,45.53
2023-02-14T23:19:51.526Z,46.22
2023-02-14T23:22:35.546Z,42.63
2023-02-14T23:25:05.065Z,44.83
2023-02-14T23:27:43.874Z,46.15
2023-02-14T23:30:14.043Z,52.08
2023-02-14T23:32:41.316Z,46.65
2023-02-14T23:35:08.269Z,44.72
2023-02-14T23:37:34.945Z,47.83
2023-02-14T23:40:01.753Z,49.47
2023-02-14T23:42:28.400Z,51.03
2023-02-14T23:45:15.041Z,51.50
2023-02-14T23:47:41.667Z,49.97
2023-02-14T23:50:08.853Z,49.05
2023-02-14T23:52:36.994Z,55.78
2023-02-14T23:55:05.512Z,52.13
2023-02-14T23:57:32.153Z,52.60
